Impacts METAR Board
IDs:

KSAT - San Antonio Intl, TX, US

Updated at: 2300 UTC 29 May 2020
Potential Impact None Slight Moderate High
Time 29/11Z 29/12Z 29/13Z 29/14Z 29/15Z 29/16Z 29/17Z 29/18Z 29/19Z 29/20Z 29/21Z 29/22Z 29/23Z
Temp68 68 71 76 80 82 84 86 87 87 88 87 86
Dewpt65 65 66 66 67 65 64 64 62 61 60 58 55
Altim30.06 30.08 30.10 30.12 30.12 30.13 30.13 30.10 30.12 30.11 30.09 30.08 30.07
VIS10 10 10 10 10 10 10 10 10 10 10 10 10
CIG-- 250 250 250 250 250 250 250 250 250 250 250 250
CoverSCTBKNBKNBKNBKNBKNBKNBKNBKNBKNBKNBKNBKN
FltCatVFRVFRVFRVFRVFRVFRVFRVFRVFRVFRVFRVFRVFR
WX--------------------------
WDir31030032035036032030101040306060
WSpd4 4 4 7 10 8 8 8 9 8 10 9 7
WGst-- -- -- -- -- -- -- -- 17 21 -- 18 --
Raw hourly METARs
KSAT 291051Z COR 31004KT 10SM SCT250 20/18 A3006 RMK AO2 SLP165 T02000183 $
KSAT 291151Z 30004KT 10SM BKN250 20/18 A3008 RMK AO2 SLP170 70003 T02000183 10222 20200 53009 $
KSAT 291251Z 32004KT 10SM BKN250 22/19 A3010 RMK AO2 SLP177 T02170189 $
KSAT 291351Z 35007KT 10SM BKN250 24/19 A3012 RMK AO2 SLP183 T02440189 $
KSAT 291451Z 36010KT 10SM BKN250 27/19 A3012 RMK AO2 SLP181 T02670194 50013 $
KSAT 291551Z 32008KT 10SM FEW030 BKN250 28/18 A3013 RMK AO2 SLP185 T02780183 $
KSAT 291651Z 03008KT 10SM SCT045 BKN250 29/18 A3013 RMK AO2 SLP184 T02890178 $
KSAT 291751Z 01008KT 10SM SCT049 BKN250 30/18 A3010 RMK AO2 SLP176 T03000178 10300 20200 58004 $
KSAT 291851Z 01009G17KT 10SM SCT050 BKN250 31/17 A3012 RMK AO2 SLP180 T03060167 $
KSAT 291951Z 04008G21KT 010V070 10SM SCT050 BKN250 31/16 A3011 RMK AO2 SLP176 T03060161 $
KSAT 292051Z 03010KT 10SM SCT060 BKN250 31/16 A3009 RMK AO2 SLP172 T03110156 58003 $
KSAT 292151Z 06009G18KT 10SM SCT065 BKN250 31/14 A3008 RMK AO2 SLP169 T03060144 $
KSAT 292251Z 06007KT 10SM FEW070 BKN250 30/13 A3007 RMK AO2 SLP166 T03000128 $